Terminal Aerodrome Forecast
Issued by NWS

Home | Current Version | Previous Version | Text Only | Print | Product List | Glossary On
Versions: 1 2 3 4 5 6 7 8 9 10 11 12 13 14 15
375
FTUS44 KMAF 270520
TAFFST
TAF
KFST 270520Z 2706/2806 15014G20KT P6SM SKC
     FM270900 14011KT P6SM FEW080=

USA.gov is the U.S. government's official web portal to all federal, state and local government web resources and services.